sensor_id;sensor_type;location;lat;lon;timestamp;temperature;humidity
24217;DHT22;12356;49.386;8.688;2023-03-01T00:00:49;3.50;5.70
24217;DHT22;12356;49.386;8.688;2023-03-01T00:03:20;3.50;5.80
24217;DHT22;12356;49.386;8.688;2023-03-01T00:05:51;3.50;5.70
24217;DHT22;12356;49.386;8.688;2023-03-01T00:08:21;3.50;5.60
24217;DHT22;12356;49.386;8.688;2023-03-01T00:13:38;3.50;5.90
24217;DHT22;12356;49.386;8.688;2023-03-01T00:16:12;3.50;5.70
24217;DHT22;12356;49.386;8.688;2023-03-01T00:18:43;3.50;5.80
24217;DHT22;12356;49.386;8.688;2023-03-01T00:21:14;3.50;6.10
24217;DHT22;12356;49.386;8.688;2023-03-01T00:23:45;3.40;6.00
24217;DHT22;12356;49.386;8.688;2023-03-01T00:26:17;3.40;6.00
24217;DHT22;12356;49.386;8.688;2023-03-01T00:28:48;3.30;6.70
24217;DHT22;12356;49.386;8.688;2023-03-01T00:31:21;3.30;6.70
24217;DHT22;12356;49.386;8.688;2023-03-01T00:33:54;3.30;6.70
24217;DHT22;12356;49.386;8.688;2023-03-01T00:36:31;3.20;6.90
24217;DHT22;12356;49.386;8.688;2023-03-01T00:39:03;3.20;7.20
24217;DHT22;12356;49.386;8.688;2023-03-01T00:41:34;3.10;7.30
24217;DHT22;12356;49.386;8.688;2023-03-01T00:44:05;3.10;7.30
24217;DHT22;12356;49.386;8.688;2023-03-01T00:46:35;3.10;7.60
24217;DHT22;12356;49.386;8.688;2023-03-01T00:49:06;3.10;7.50
24217;DHT22;12356;49.386;8.688;2023-03-01T00:51:37;3.10;7.80
24217;DHT22;12356;49.386;8.688;2023-03-01T00:54:08;3.10;8.30
24217;DHT22;12356;49.386;8.688;2023-03-01T00:56:39;3.10;7.70
24217;DHT22;12356;49.386;8.688;2023-03-01T00:59:09;3.00;7.70
24217;DHT22;12356;49.386;8.688;2023-03-01T01:01:40;3.00;7.70
24217;DHT22;12356;49.386;8.688;2023-03-01T01:04:13;2.90;7.70
24217;DHT22;12356;49.386;8.688;2023-03-01T01:06:46;2.90;7.70
24217;DHT22;12356;49.386;8.688;2023-03-01T01:09:17;2.90;8.10
24217;DHT22;12356;49.386;8.688;2023-03-01T01:11:51;3.00;7.80
24217;DHT22;12356;49.386;8.688;2023-03-01T01:14:22;3.00;8.20
24217;DHT22;12356;49.386;8.688;2023-03-01T01:16:52;2.90;8.10
24217;DHT22;12356;49.386;8.688;2023-03-01T01:19:23;2.90;8.60
24217;DHT22;12356;49.386;8.688;2023-03-01T01:21:54;2.90;8.60
24217;DHT22;12356;49.386;8.688;2023-03-01T01:24:25;2.90;8.50
24217;DHT22;12356;49.386;8.688;2023-03-01T01:26:55;3.00;8.60
24217;DHT22;12356;49.386;8.688;2023-03-01T01:29:26;3.00;8.30
24217;DHT22;12356;49.386;8.688;2023-03-01T01:31:56;3.00;8.40
24217;DHT22;12356;49.386;8.688;2023-03-01T01:34:27;3.00;8.50
24217;DHT22;12356;49.386;8.688;2023-03-01T01:36:57;3.00;8.10
24217;DHT22;12356;49.386;8.688;2023-03-01T01:39:34;3.00;8.60
24217;DHT22;12356;49.386;8.688;2023-03-01T01:42:05;3.00;8.20
24217;DHT22;12356;49.386;8.688;2023-03-01T01:44:36;3.00;8.10
24217;DHT22;12356;49.386;8.688;2023-03-01T01:47:15;3.00;8.10
24217;DHT22;12356;49.386;8.688;2023-03-01T01:49:54;3.00;8.40
24217;DHT22;12356;49.386;8.688;2023-03-01T01:52:31;3.10;8.60
24217;DHT22;12356;49.386;8.688;2023-03-01T01:55:06;3.10;8.10
24217;DHT22;12356;49.386;8.688;2023-03-01T01:57:54;3.10;8.40
24217;DHT22;12356;49.386;8.688;2023-03-01T02:00:27;3.10;8.50
24217;DHT22;12356;49.386;8.688;2023-03-01T02:03:08;3.10;7.80
24217;DHT22;12356;49.386;8.688;2023-03-01T02:06:03;3.00;7.90
24217;DHT22;12356;49.386;8.688;2023-03-01T02:08:37;3.10;8.20
24217;DHT22;12356;49.386;8.688;2023-03-01T02:11:09;3.00;8.00
24217;DHT22;12356;49.386;8.688;2023-03-01T02:13:41;3.00;8.10
24217;DHT22;12356;49.386;8.688;2023-03-01T02:16:14;3.00;8.10
24217;DHT22;12356;49.386;8.688;2023-03-01T02:18:45;3.10;7.90
24217;DHT22;12356;49.386;8.688;2023-03-01T02:21:40;3.10;8.00
24217;DHT22;12356;49.386;8.688;2023-03-01T02:27:56;3.00;8.40
24217;DHT22;12356;49.386;8.688;2023-03-01T02:30:29;3.00;8.60
24217;DHT22;12356;49.386;8.688;2023-03-01T02:33:03;3.00;8.40
24217;DHT22;12356;49.386;8.688;2023-03-01T02:35:37;2.90;8.20
24217;DHT22;12356;49.386;8.688;2023-03-01T02:38:09;2.90;8.60
24217;DHT22;12356;49.386;8.688;2023-03-01T02:40:40;2.90;8.60
24217;DHT22;12356;49.386;8.688;2023-03-01T02:43:12;2.60;8.30
24217;DHT22;12356;49.386;8.688;2023-03-01T02:45:49;2.80;9.00
24217;DHT22;12356;49.386;8.688;2023-03-01T02:48:20;2.80;8.70
24217;DHT22;12356;49.386;8.688;2023-03-01T02:56:57;2.80;8.80
24217;DHT22;12356;49.386;8.688;2023-03-01T02:59:31;2.80;9.00
24217;DHT22;12356;49.386;8.688;2023-03-01T03:02:02;2.80;9.60
24217;DHT22;12356;49.386;8.688;2023-03-01T03:04:33;2.80;8.90
24217;DHT22;12356;49.386;8.688;2023-03-01T03:07:04;2.80;9.00
24217;DHT22;12356;49.386;8.688;2023-03-01T03:09:35;2.90;9.30
24217;DHT22;12356;49.386;8.688;2023-03-01T03:12:05;2.90;9.50
24217;DHT22;12356;49.386;8.688;2023-03-01T03:14:36;2.90;9.50
24217;DHT22;12356;49.386;8.688;2023-03-01T03:17:06;3.00;9.10
24217;DHT22;12356;49.386;8.688;2023-03-01T03:19:37;3.00;8.60
24217;DHT22;12356;49.386;8.688;2023-03-01T03:22:07;3.10;9.40
24217;DHT22;12356;49.386;8.688;2023-03-01T03:24:39;3.10;8.90
24217;DHT22;12356;49.386;8.688;2023-03-01T03:27:09;3.10;9.10
24217;DHT22;12356;49.386;8.688;2023-03-01T03:29:40;3.10;8.00
24217;DHT22;12356;49.386;8.688;2023-03-01T03:32:10;3.10;7.90
24217;DHT22;12356;49.386;8.688;2023-03-01T03:34:41;3.10;8.50
24217;DHT22;12356;49.386;8.688;2023-03-01T03:37:11;3.10;8.90
24217;DHT22;12356;49.386;8.688;2023-03-01T03:40:02;3.10;9.40
24217;DHT22;12356;49.386;8.688;2023-03-01T03:42:33;3.00;10.10
24217;DHT22;12356;49.386;8.688;2023-03-01T03:45:04;3.00;10.60
24217;DHT22;12356;49.386;8.688;2023-03-01T03:47:34;2.90;10.70
24217;DHT22;12356;49.386;8.688;2023-03-01T03:50:05;2.90;10.90
24217;DHT22;12356;49.386;8.688;2023-03-01T03:52:36;2.80;10.70
24217;DHT22;12356;49.386;8.688;2023-03-01T03:55:08;2.70;10.70
24217;DHT22;12356;49.386;8.688;2023-03-01T03:57:41;2.70;11.10
24217;DHT22;12356;49.386;8.688;2023-03-01T04:00:12;2.80;11.10
24217;DHT22;12356;49.386;8.688;2023-03-01T04:02:43;2.70;11.00
24217;DHT22;12356;49.386;8.688;2023-03-01T04:05:16;2.80;11.10
24217;DHT22;12356;49.386;8.688;2023-03-01T04:07:47;2.80;11.00
24217;DHT22;12356;49.386;8.688;2023-03-01T04:10:18;2.70;11.10
24217;DHT22;12356;49.386;8.688;2023-03-01T04:12:48;2.70;10.70
24217;DHT22;12356;49.386;8.688;2023-03-01T04:15:19;2.80;10.50
24217;DHT22;12356;49.386;8.688;2023-03-01T04:17:51;2.80;9.90
24217;DHT22;12356;49.386;8.688;2023-03-01T04:20:28;2.80;9.70
24217;DHT22;12356;49.386;8.688;2023-03-01T04:23:07;2.80;9.50
24217;DHT22;12356;49.386;8.688;2023-03-01T04:25:48;2.90;9.70
24217;DHT22;12356;49.386;8.688;2023-03-01T04:28:32;2.90;9.30
24217;DHT22;12356;49.386;8.688;2023-03-01T04:31:07;2.80;9.30
24217;DHT22;12356;49.386;8.688;2023-03-01T04:33:53;2.80;9.20
24217;DHT22;12356;49.386;8.688;2023-03-01T04:36:26;2.80;9.40
24217;DHT22;12356;49.386;8.688;2023-03-01T04:38:56;2.70;9.60
24217;DHT22;12356;49.386;8.688;2023-03-01T04:41:27;2.70;9.50
24217;DHT22;12356;49.386;8.688;2023-03-01T04:43:58;2.70;9.90
24217;DHT22;12356;49.386;8.688;2023-03-01T04:46:30;2.70;9.60
24217;DHT22;12356;49.386;8.688;2023-03-01T04:49:01;2.60;9.50
24217;DHT22;12356;49.386;8.688;2023-03-01T04:51:32;2.60;9.70
24217;DHT22;12356;49.386;8.688;2023-03-01T04:54:03;2.60;9.80
24217;DHT22;12356;49.386;8.688;2023-03-01T04:56:33;2.70;10.00
24217;DHT22;12356;49.386;8.688;2023-03-01T04:59:04;2.70;10.10
24217;DHT22;12356;49.386;8.688;2023-03-01T05:01:36;2.60;9.80
24217;DHT22;12356;49.386;8.688;2023-03-01T05:04:07;2.60;9.90
24217;DHT22;12356;49.386;8.688;2023-03-01T05:06:43;2.60;10.00
24217;DHT22;12356;49.386;8.688;2023-03-01T05:09:14;2.60;9.90
24217;DHT22;12356;49.386;8.688;2023-03-01T05:11:45;2.60;10.10
24217;DHT22;12356;49.386;8.688;2023-03-01T05:14:15;2.60;10.20
24217;DHT22;12356;49.386;8.688;2023-03-01T05:16:46;2.60;10.20
24217;DHT22;12356;49.386;8.688;2023-03-01T05:19:16;2.60;10.40
24217;DHT22;12356;49.386;8.688;2023-03-01T05:21:52;2.60;10.10
24217;DHT22;12356;49.386;8.688;2023-03-01T05:24:33;2.60;9.90
24217;DHT22;12356;49.386;8.688;2023-03-01T05:27:04;2.60;9.90
24217;DHT22;12356;49.386;8.688;2023-03-01T05:29:36;2.50;10.00
24217;DHT22;12356;49.386;8.688;2023-03-01T05:32:07;2.40;10.30
24217;DHT22;12356;49.386;8.688;2023-03-01T05:34:39;2.40;10.30
24217;DHT22;12356;49.386;8.688;2023-03-01T05:37:09;2.50;10.40
24217;DHT22;12356;49.386;8.688;2023-03-01T05:39:40;2.40;10.10
24217;DHT22;12356;49.386;8.688;2023-03-01T05:42:12;2.50;10.40
24217;DHT22;12356;49.386;8.688;2023-03-01T05:44:42;2.50;10.20
24217;DHT22;12356;49.386;8.688;2023-03-01T05:47:13;2.40;10.10
24217;DHT22;12356;49.386;8.688;2023-03-01T05:49:43;2.50;10.50
24217;DHT22;12356;49.386;8.688;2023-03-01T05:52:14;2.50;10.00
24217;DHT22;12356;49.386;8.688;2023-03-01T05:54:44;2.50;10.50
24217;DHT22;12356;49.386;8.688;2023-03-01T05:57:16;2.50;10.20
24217;DHT22;12356;49.386;8.688;2023-03-01T05:59:46;2.60;9.90
24217;DHT22;12356;49.386;8.688;2023-03-01T06:02:17;2.60;10.00
24217;DHT22;12356;49.386;8.688;2023-03-01T06:04:47;2.50;9.80
24217;DHT22;12356;49.386;8.688;2023-03-01T06:07:18;2.50;10.20
24217;DHT22;12356;49.386;8.688;2023-03-01T06:09:48;2.40;9.90
24217;DHT22;12356;49.386;8.688;2023-03-01T06:12:19;2.40;10.50
24217;DHT22;12356;49.386;8.688;2023-03-01T06:14:50;2.50;10.20
24217;DHT22;12356;49.386;8.688;2023-03-01T06:17:20;2.50;10.30
24217;DHT22;12356;49.386;8.688;2023-03-01T06:19:51;2.50;10.10
24217;DHT22;12356;49.386;8.688;2023-03-01T06:22:21;2.50;10.30
24217;DHT22;12356;49.386;8.688;2023-03-01T06:24:52;2.50;9.80
24217;DHT22;12356;49.386;8.688;2023-03-01T06:27:22;2.60;9.60
24217;DHT22;12356;49.386;8.688;2023-03-01T06:29:53;2.60;9.30
24217;DHT22;12356;49.386;8.688;2023-03-01T06:32:23;2.60;9.20
24217;DHT22;12356;49.386;8.688;2023-03-01T06:34:54;2.70;9.30
24217;DHT22;12356;49.386;8.688;2023-03-01T06:37:25;2.70;9.20
24217;DHT22;12356;49.386;8.688;2023-03-01T06:39:56;2.60;8.90
24217;DHT22;12356;49.386;8.688;2023-03-01T06:42:27;2.60;9.10
24217;DHT22;12356;49.386;8.688;2023-03-01T06:44:57;2.60;9.40
24217;DHT22;12356;49.386;8.688;2023-03-01T06:47:28;2.60;8.90
24217;DHT22;12356;49.386;8.688;2023-03-01T06:50:00;2.60;8.90
24217;DHT22;12356;49.386;8.688;2023-03-01T06:52:31;2.60;8.50
24217;DHT22;12356;49.386;8.688;2023-03-01T06:55:02;2.60;8.80
24217;DHT22;12356;49.386;8.688;2023-03-01T06:57:33;2.60;9.10
24217;DHT22;12356;49.386;8.688;2023-03-01T07:00:04;2.70;8.90
24217;DHT22;12356;49.386;8.688;2023-03-01T07:02:36;2.70;9.00
24217;DHT22;12356;49.386;8.688;2023-03-01T07:05:06;2.80;9.20
24217;DHT22;12356;49.386;8.688;2023-03-01T07:07:37;2.80;8.70
24217;DHT22;12356;49.386;8.688;2023-03-01T07:10:08;2.80;8.70
24217;DHT22;12356;49.386;8.688;2023-03-01T07:12:39;2.80;8.80
24217;DHT22;12356;49.386;8.688;2023-03-01T07:15:11;2.80;8.40
24217;DHT22;12356;49.386;8.688;2023-03-01T07:17:42;2.90;8.70
24217;DHT22;12356;49.386;8.688;2023-03-01T07:20:14;2.80;8.30
24217;DHT22;12356;49.386;8.688;2023-03-01T07:22:45;2.80;8.70
24217;DHT22;12356;49.386;8.688;2023-03-01T07:25:16;2.80;8.20
24217;DHT22;12356;49.386;8.688;2023-03-01T07:27:53;2.80;8.30
24217;DHT22;12356;49.386;8.688;2023-03-01T07:30:24;2.80;8.00
24217;DHT22;12356;49.386;8.688;2023-03-01T07:32:58;2.80;8.10
24217;DHT22;12356;49.386;8.688;2023-03-01T07:35:28;2.90;8.20
24217;DHT22;12356;49.386;8.688;2023-03-01T07:37:59;2.80;7.60
24217;DHT22;12356;49.386;8.688;2023-03-01T07:40:29;2.80;8.00
24217;DHT22;12356;49.386;8.688;2023-03-01T07:43:00;2.70;8.10
24217;DHT22;12356;49.386;8.688;2023-03-01T07:45:31;2.80;8.20
24217;DHT22;12356;49.386;8.688;2023-03-01T07:48:02;2.70;8.10
24217;DHT22;12356;49.386;8.688;2023-03-01T07:50:32;2.80;8.30
24217;DHT22;12356;49.386;8.688;2023-03-01T07:53:03;2.70;8.20
24217;DHT22;12356;49.386;8.688;2023-03-01T07:55:35;2.80;8.10
24217;DHT22;12356;49.386;8.688;2023-03-01T07:58:05;2.90;8.20
24217;DHT22;12356;49.386;8.688;2023-03-01T08:00:36;2.90;7.80
24217;DHT22;12356;49.386;8.688;2023-03-01T08:03:06;2.80;7.60
24217;DHT22;12356;49.386;8.688;2023-03-01T08:05:37;2.90;7.70
24217;DHT22;12356;49.386;8.688;2023-03-01T08:08:07;3.00;7.20
24217;DHT22;12356;49.386;8.688;2023-03-01T08:10:38;3.00;7.60
24217;DHT22;12356;49.386;8.688;2023-03-01T08:13:08;3.10;7.40
24217;DHT22;12356;49.386;8.688;2023-03-01T08:15:39;3.10;7.70
24217;DHT22;12356;49.386;8.688;2023-03-01T08:18:09;3.30;7.30
24217;DHT22;12356;49.386;8.688;2023-03-01T08:20:40;3.30;7.10
24217;DHT22;12356;49.386;8.688;2023-03-01T08:23:10;3.50;7.10
24217;DHT22;12356;49.386;8.688;2023-03-01T08:25:41;3.50;6.30
24217;DHT22;12356;49.386;8.688;2023-03-01T08:28:12;3.60;6.30
24217;DHT22;12356;49.386;8.688;2023-03-01T08:30:43;3.60;5.70
24217;DHT22;12356;49.386;8.688;2023-03-01T08:33:13;3.70;5.70
24217;DHT22;12356;49.386;8.688;2023-03-01T08:35:44;3.70;5.50
24217;DHT22;12356;49.386;8.688;2023-03-01T08:38:14;3.80;5.60
24217;DHT22;12356;49.386;8.688;2023-03-01T08:40:45;3.80;5.30
24217;DHT22;12356;49.386;8.688;2023-03-01T08:43:15;3.80;5.50
24217;DHT22;12356;49.386;8.688;2023-03-01T08:45:48;3.90;6.00
24217;DHT22;12356;49.386;8.688;2023-03-01T08:48:19;4.00;5.80
24217;DHT22;12356;49.386;8.688;2023-03-01T08:50:49;4.10;5.80
24217;DHT22;12356;49.386;8.688;2023-03-01T08:53:20;4.20;5.10
24217;DHT22;12356;49.386;8.688;2023-03-01T08:55:50;4.20;4.50
24217;DHT22;12356;49.386;8.688;2023-03-01T08:58:21;4.30;5.10
24217;DHT22;12356;49.386;8.688;2023-03-01T09:00:51;4.30;4.10
24217;DHT22;12356;49.386;8.688;2023-03-01T09:03:23;4.40;4.30
24217;DHT22;12356;49.386;8.688;2023-03-01T09:06:00;4.40;4.30
24217;DHT22;12356;49.386;8.688;2023-03-01T09:08:31;4.30;4.00
24217;DHT22;12356;49.386;8.688;2023-03-01T09:11:05;4.30;4.00
24217;DHT22;12356;49.386;8.688;2023-03-01T09:13:37;4.40;5.00
24217;DHT22;12356;49.386;8.688;2023-03-01T09:16:08;4.50;5.40
24217;DHT22;12356;49.386;8.688;2023-03-01T09:18:39;4.50;4.60
24217;DHT22;12356;49.386;8.688;2023-03-01T09:21:15;4.60;4.80
24217;DHT22;12356;49.386;8.688;2023-03-01T09:23:47;4.60;4.60
24217;DHT22;12356;49.386;8.688;2023-03-01T09:26:19;4.60;5.00
24217;DHT22;12356;49.386;8.688;2023-03-01T09:28:53;4.80;4.90
24217;DHT22;12356;49.386;8.688;2023-03-01T09:31:24;4.80;5.20
24217;DHT22;12356;49.386;8.688;2023-03-01T09:33:55;4.90;4.40
24217;DHT22;12356;49.386;8.688;2023-03-01T09:36:25;4.90;4.10
24217;DHT22;12356;49.386;8.688;2023-03-01T09:38:57;5.00;4.50
24217;DHT22;12356;49.386;8.688;2023-03-01T09:44:27;5.00;5.10
24217;DHT22;12356;49.386;8.688;2023-03-01T09:47:00;5.10;4.20
24217;DHT22;12356;49.386;8.688;2023-03-01T09:49:33;5.20;4.90
24217;DHT22;12356;49.386;8.688;2023-03-01T09:54:55;5.30;3.90
24217;DHT22;12356;49.386;8.688;2023-03-01T09:57:46;5.40;4.20
24217;DHT22;12356;49.386;8.688;2023-03-01T10:00:29;5.40;2.80
24217;DHT22;12356;49.386;8.688;2023-03-01T10:11:23;5.60;1.20
24217;DHT22;12356;49.386;8.688;2023-03-01T10:19:45;5.80;1.70
24217;DHT22;12356;49.386;8.688;2023-03-01T10:22:22;5.90;1.40
24217;DHT22;12356;49.386;8.688;2023-03-01T10:24:57;6.00;2.00
24217;DHT22;12356;49.386;8.688;2023-03-01T10:27:36;6.00;2.00
24217;DHT22;12356;49.386;8.688;2023-03-01T10:30:18;5.90;1.00
24217;DHT22;12356;49.386;8.688;2023-03-01T10:32:52;5.80;1.00
24217;DHT22;12356;49.386;8.688;2023-03-01T10:35:29;5.90;1.00
24217;DHT22;12356;49.386;8.688;2023-03-01T10:38:11;6.00;1.00
24217;DHT22;12356;49.386;8.688;2023-03-01T10:41:10;6.10;1.00
24217;DHT22;12356;49.386;8.688;2023-03-01T10:43:46;6.10;1.70
24217;DHT22;12356;49.386;8.688;2023-03-01T10:46:35;6.20;1.70
24217;DHT22;12356;49.386;8.688;2023-03-01T10:49:21;6.20;1.50
24217;DHT22;12356;49.386;8.688;2023-03-01T10:51:53;6.30;1.00
24217;DHT22;12356;49.386;8.688;2023-03-01T10:54:29;6.40;1.60
24217;DHT22;12356;49.386;8.688;2023-03-01T10:57:03;6.50;2.20
24217;DHT22;12356;49.386;8.688;2023-03-01T10:59:36;6.50;1.00
24217;DHT22;12356;49.386;8.688;2023-03-01T11:05:13;6.70;1.20
24217;DHT22;12356;49.386;8.688;2023-03-01T11:10:23;6.80;1.00
24217;DHT22;12356;49.386;8.688;2023-03-01T11:13:13;6.80;1.00
24217;DHT22;12356;49.386;8.688;2023-03-01T11:16:06;6.90;1.00
24217;DHT22;12356;49.386;8.688;2023-03-01T11:18:37;7.00;1.00
24217;DHT22;12356;49.386;8.688;2023-03-01T11:21:09;7.10;1.00
24217;DHT22;12356;49.386;8.688;2023-03-01T11:23:41;7.20;1.00
24217;DHT22;12356;49.386;8.688;2023-03-01T11:26:14;7.20;1.00
24217;DHT22;12356;49.386;8.688;2023-03-01T11:28:49;7.30;1.00
24217;DHT22;12356;49.386;8.688;2023-03-01T11:31:23;7.30;1.00
24217;DHT22;12356;49.386;8.688;2023-03-01T11:34:02;7.20;1.00
24217;DHT22;12356;49.386;8.688;2023-03-01T11:37:01;7.20;1.00
24217;DHT22;12356;49.386;8.688;2023-03-01T11:39:46;7.20;1.00
24217;DHT22;12356;49.386;8.688;2023-03-01T11:42:43;7.40;1.00
24217;DHT22;12356;49.386;8.688;2023-03-01T11:45:15;7.40;1.00
24217;DHT22;12356;49.386;8.688;2023-03-01T11:48:17;7.50;1.00
24217;DHT22;12356;49.386;8.688;2023-03-01T11:50:52;7.50;1.00
24217;DHT22;12356;49.386;8.688;2023-03-01T11:56:38;7.70;1.00
24217;DHT22;12356;49.386;8.688;2023-03-01T12:05:48;7.90;1.00
24217;DHT22;12356;49.386;8.688;2023-03-01T12:08:27;7.90;1.00
24217;DHT22;12356;49.386;8.688;2023-03-01T12:25:38;8.10;1.00
24217;DHT22;12356;49.386;8.688;2023-03-01T12:33:45;8.30;1.00
24217;DHT22;12356;49.386;8.688;2023-03-01T12:36:46;8.30;1.00
24217;DHT22;12356;49.386;8.688;2023-03-01T12:39:24;8.30;1.00
24217;DHT22;12356;49.386;8.688;2023-03-01T12:47:39;8.50;1.00
24217;DHT22;12356;49.386;8.688;2023-03-01T12:50:18;8.50;1.00
24217;DHT22;12356;49.386;8.688;2023-03-01T12:52:53;8.50;1.00
24217;DHT22;12356;49.386;8.688;2023-03-01T12:55:36;8.50;1.00
24217;DHT22;12356;49.386;8.688;2023-03-01T12:58:13;8.50;1.00
24217;DHT22;12356;49.386;8.688;2023-03-01T13:01:10;8.50;1.00
24217;DHT22;12356;49.386;8.688;2023-03-01T13:06:47;8.60;1.00
24217;DHT22;12356;49.386;8.688;2023-03-01T13:10:03;8.70;1.00
24217;DHT22;12356;49.386;8.688;2023-03-01T13:17:59;8.70;1.00
24217;DHT22;12356;49.386;8.688;2023-03-01T13:26:10;8.80;1.00
24217;DHT22;12356;49.386;8.688;2023-03-01T13:33:50;8.70;1.00
24217;DHT22;12356;49.386;8.688;2023-03-01T13:36:47;8.80;1.00
24217;DHT22;12356;49.386;8.688;2023-03-01T13:39:30;8.80;1.00
24217;DHT22;12356;49.386;8.688;2023-03-01T13:42:34;8.80;1.00
24217;DHT22;12356;49.386;8.688;2023-03-01T13:45:25;8.80;1.00
24217;DHT22;12356;49.386;8.688;2023-03-01T13:48:15;8.90;1.00
24217;DHT22;12356;49.386;8.688;2023-03-01T13:50:53;9.00;1.00
24217;DHT22;12356;49.386;8.688;2023-03-01T13:53:26;9.00;1.00
24217;DHT22;12356;49.386;8.688;2023-03-01T13:56:03;9.00;1.00
24217;DHT22;12356;49.386;8.688;2023-03-01T14:01:33;9.00;1.00
24217;DHT22;12356;49.386;8.688;2023-03-01T14:04:22;9.10;1.00
24217;DHT22;12356;49.386;8.688;2023-03-01T14:07:20;9.10;1.00
24217;DHT22;12356;49.386;8.688;2023-03-01T14:09:57;9.10;1.00
24217;DHT22;12356;49.386;8.688;2023-03-01T14:12:32;9.10;1.00
24217;DHT22;12356;49.386;8.688;2023-03-01T14:15:22;9.10;1.00
24217;DHT22;12356;49.386;8.688;2023-03-01T14:20:40;9.20;1.00
24217;DHT22;12356;49.386;8.688;2023-03-01T14:23:14;9.20;1.00
24217;DHT22;12356;49.386;8.688;2023-03-01T14:25:52;9.20;1.00
24217;DHT22;12356;49.386;8.688;2023-03-01T14:28:31;9.30;1.00
24217;DHT22;12356;49.386;8.688;2023-03-01T14:31:38;9.30;1.00
24217;DHT22;12356;49.386;8.688;2023-03-01T14:34:20;9.30;1.00
24217;DHT22;12356;49.386;8.688;2023-03-01T14:36:51;9.40;1.00
24217;DHT22;12356;49.386;8.688;2023-03-01T14:39:25;9.40;1.00
24217;DHT22;12356;49.386;8.688;2023-03-01T14:41:58;9.40;1.00
24217;DHT22;12356;49.386;8.688;2023-03-01T14:44:28;9.50;1.00
24217;DHT22;12356;49.386;8.688;2023-03-01T14:47:00;9.40;1.00
24217;DHT22;12356;49.386;8.688;2023-03-01T14:49:32;9.50;1.00
24217;DHT22;12356;49.386;8.688;2023-03-01T14:52:16;9.40;1.00
24217;DHT22;12356;49.386;8.688;2023-03-01T14:54:50;9.40;1.00
24217;DHT22;12356;49.386;8.688;2023-03-01T14:57:26;9.30;1.00
24217;DHT22;12356;49.386;8.688;2023-03-01T15:00:03;9.40;1.00
24217;DHT22;12356;49.386;8.688;2023-03-01T15:02:36;9.40;1.00
24217;DHT22;12356;49.386;8.688;2023-03-01T15:05:08;9.30;1.00
24217;DHT22;12356;49.386;8.688;2023-03-01T15:07:42;9.30;1.00
24217;DHT22;12356;49.386;8.688;2023-03-01T15:10:31;9.40;1.00
24217;DHT22;12356;49.386;8.688;2023-03-01T15:13:25;9.30;1.00
24217;DHT22;12356;49.386;8.688;2023-03-01T15:16:13;9.40;1.00
24217;DHT22;12356;49.386;8.688;2023-03-01T15:19:06;9.40;1.00
24217;DHT22;12356;49.386;8.688;2023-03-01T15:21:37;9.30;1.00
24217;DHT22;12356;49.386;8.688;2023-03-01T15:24:18;9.30;1.00
24217;DHT22;12356;49.386;8.688;2023-03-01T15:26:52;9.20;1.00
24217;DHT22;12356;49.386;8.688;2023-03-01T15:29:30;9.20;1.00
24217;DHT22;12356;49.386;8.688;2023-03-01T15:32:06;9.20;1.00
24217;DHT22;12356;49.386;8.688;2023-03-01T15:34:38;9.10;1.00
24217;DHT22;12356;49.386;8.688;2023-03-01T15:40:27;9.10;1.00
24217;DHT22;12356;49.386;8.688;2023-03-01T15:43:43;9.10;1.00
24217;DHT22;12356;49.386;8.688;2023-03-01T15:46:34;9.10;1.00
24217;DHT22;12356;49.386;8.688;2023-03-01T15:49:36;9.10;1.00
24217;DHT22;12356;49.386;8.688;2023-03-01T15:52:22;9.00;1.00
24217;DHT22;12356;49.386;8.688;2023-03-01T15:55:01;9.00;1.00
24217;DHT22;12356;49.386;8.688;2023-03-01T15:57:32;8.90;1.00
24217;DHT22;12356;49.386;8.688;2023-03-01T16:00:03;9.00;1.00
24217;DHT22;12356;49.386;8.688;2023-03-01T16:02:42;8.90;1.00
24217;DHT22;12356;49.386;8.688;2023-03-01T16:05:23;9.00;1.00
24217;DHT22;12356;49.386;8.688;2023-03-01T16:07:54;8.90;1.00
24217;DHT22;12356;49.386;8.688;2023-03-01T16:10:25;8.90;1.00
24217;DHT22;12356;49.386;8.688;2023-03-01T16:12:55;8.90;1.00
24217;DHT22;12356;49.386;8.688;2023-03-01T16:15:31;8.80;1.00
24217;DHT22;12356;49.386;8.688;2023-03-01T16:18:03;8.80;1.00
24217;DHT22;12356;49.386;8.688;2023-03-01T16:20:34;8.80;1.00
24217;DHT22;12356;49.386;8.688;2023-03-01T16:23:06;8.70;1.00
24217;DHT22;12356;49.386;8.688;2023-03-01T16:25:37;8.80;1.00
24217;DHT22;12356;49.386;8.688;2023-03-01T16:28:08;8.80;1.00
24217;DHT22;12356;49.386;8.688;2023-03-01T16:30:40;8.70;1.00
24217;DHT22;12356;49.386;8.688;2023-03-01T16:33:10;8.70;1.00
24217;DHT22;12356;49.386;8.688;2023-03-01T16:35:41;8.70;1.00
24217;DHT22;12356;49.386;8.688;2023-03-01T16:38:13;8.60;1.00
24217;DHT22;12356;49.386;8.688;2023-03-01T16:40:48;8.60;1.00
24217;DHT22;12356;49.386;8.688;2023-03-01T16:43:19;8.60;1.00
24217;DHT22;12356;49.386;8.688;2023-03-01T16:45:50;8.60;1.00
24217;DHT22;12356;49.386;8.688;2023-03-01T16:48:20;8.60;1.00
24217;DHT22;12356;49.386;8.688;2023-03-01T16:50:59;8.60;1.00
24217;DHT22;12356;49.386;8.688;2023-03-01T16:53:30;8.60;1.00
24217;DHT22;12356;49.386;8.688;2023-03-01T16:56:01;8.50;1.00
24217;DHT22;12356;49.386;8.688;2023-03-01T16:58:31;8.40;1.00
24217;DHT22;12356;49.386;8.688;2023-03-01T17:01:15;8.50;1.00
24217;DHT22;12356;49.386;8.688;2023-03-01T17:03:47;8.40;1.00
24217;DHT22;12356;49.386;8.688;2023-03-01T17:06:21;8.40;1.00
24217;DHT22;12356;49.386;8.688;2023-03-01T17:08:52;8.30;1.00
24217;DHT22;12356;49.386;8.688;2023-03-01T17:11:22;8.30;1.00
24217;DHT22;12356;49.386;8.688;2023-03-01T17:13:53;8.20;1.00
24217;DHT22;12356;49.386;8.688;2023-03-01T17:16:23;8.20;1.00
24217;DHT22;12356;49.386;8.688;2023-03-01T17:18:54;8.20;1.00
24217;DHT22;12356;49.386;8.688;2023-03-01T17:21:24;8.20;1.00
24217;DHT22;12356;49.386;8.688;2023-03-01T17:23:56;8.20;1.00
24217;DHT22;12356;49.386;8.688;2023-03-01T17:26:27;8.20;1.00
24217;DHT22;12356;49.386;8.688;2023-03-01T17:29:01;8.10;1.00
24217;DHT22;12356;49.386;8.688;2023-03-01T17:31:33;8.10;1.00
24217;DHT22;12356;49.386;8.688;2023-03-01T17:34:03;8.00;1.00
24217;DHT22;12356;49.386;8.688;2023-03-01T17:36:34;7.90;1.00
24217;DHT22;12356;49.386;8.688;2023-03-01T17:39:10;7.80;1.00
24217;DHT22;12356;49.386;8.688;2023-03-01T17:41:41;7.90;1.00
24217;DHT22;12356;49.386;8.688;2023-03-01T17:44:12;7.90;1.00
24217;DHT22;12356;49.386;8.688;2023-03-01T17:46:42;7.80;1.00
24217;DHT22;12356;49.386;8.688;2023-03-01T17:49:13;7.70;1.00
24217;DHT22;12356;49.386;8.688;2023-03-01T17:51:44;7.70;1.00
24217;DHT22;12356;49.386;8.688;2023-03-01T17:54:14;7.60;1.00
24217;DHT22;12356;49.386;8.688;2023-03-01T17:56:45;7.60;1.00
24217;DHT22;12356;49.386;8.688;2023-03-01T17:59:15;7.40;1.00
24217;DHT22;12356;49.386;8.688;2023-03-01T18:01:49;7.40;1.60
24217;DHT22;12356;49.386;8.688;2023-03-01T18:04:19;7.40;2.10
24217;DHT22;12356;49.386;8.688;2023-03-01T18:06:50;7.30;2.00
24217;DHT22;12356;49.386;8.688;2023-03-01T18:09:20;7.20;2.10
24217;DHT22;12356;49.386;8.688;2023-03-01T18:11:51;7.20;1.80
24217;DHT22;12356;49.386;8.688;2023-03-01T18:14:23;7.30;1.40
24217;DHT22;12356;49.386;8.688;2023-03-01T18:16:54;7.20;2.60
24217;DHT22;12356;49.386;8.688;2023-03-01T18:19:25;7.20;3.30
24217;DHT22;12356;49.386;8.688;2023-03-01T18:21:55;7.10;3.50
24217;DHT22;12356;49.386;8.688;2023-03-01T18:24:26;7.10;4.10
24217;DHT22;12356;49.386;8.688;2023-03-01T18:26:56;7.00;4.20